Meteo Giornale » Osservazioni meteo Stati Uniti (USA) » Holloman
ore: 10:55 - Osservazioni Meteo Holloman
Lat. 32° 51' N Lon. 106° 6' W Alt. 1248 metri s.l.m.
28 °C
Nuvoloso
Temp. 24 Ore
20 °C
38 °C
Nord/NOvest
14.8 Km/h
Dew point 13 °C
Umidità 39 %
Visibilità 10 Km
Il sole sorge alle ore 06:39
Il sole tramonta alle ore 19:29
| Data e Ora | Cielo e Fenomeni | T °C | DP °C | Um. % | Pres. hPa | Vis. km | Vento km/h | |
|---|---|---|---|---|---|---|---|---|
| Oggi h: 10:55 | Nuvoloso | 28 | 13 | 39 | 1021 | 10 | N/NO 14.8 | |
| Oggi h: 09:55 | Molto Nuvoloso | 26 | 14 | 47 | 1021 | 10 | NO 9.3 | |
| Oggi h: 08:55 | Molto Nuvoloso | 23 | 16 | 64 | 1021 | 10 | O 7.4 | |
| Oggi h: 07:55 | Molto Nuvoloso | 23 | 16 | 64 | 1021 | 10 | N 0 | |
| Oggi h: 06:55 | Nuvoloso | 20 | 15 | 72 | 1020 | 10 | N 5.5 | |
| Oggi h: 05:55 | Nuvoloso | 20 | 16 | 77 | 1020 | 11 | N 5.5 | |
| Oggi h: 04:55 | Sereno | 20 | 16 | 77 | 1019 | 10 | N/NO 9.3 | |
| Oggi h: 03:55 | Nuvoloso | 21 | 16 | 73 | 1019 | 10 | N 0 | |
| Oggi h: 02:55 | Nuvoloso | 22 | 16 | 68 | 1019 | 10 | N/NO 11.1 | |
| Oggi h: 01:55 | Nuvoloso | 22 | 17 | 73 | 1019 | 10 | N 11.1 | |
| Oggi h: 01:22 | Molto Nuvoloso | 23 | 17 | 68 | 1020 | 10 | N 9.3 | |
| Oggi h: 00:55 | Pioggia | 25 | 14 | 50 | 1020 | 10 | N/NE 13 | |
| Oggi h: 00:50 | Pioviggine | 25 | 14 | 50 | 1020 | 10 | NE 9.3 | |
| Ieri h: 23:55 | Coperto | 24 | 15 | 57 | 1020 | 10 | NE 13 | |
| Ieri h: 23:01 | Molto Nuvoloso | 27 | 14 | 44 | 1020 | 14 | SE 14.8 | |
| Ieri h: 22:24 | Temporale nelle vicinanze Foschia | 27 | 14 | 44 | 1020 | 8 | E/SE 16.7 | |
| Ieri h: 22:13 | Pioviggine | 27 | 15 | 47 | 1020 | 8 | O/SO 16.7 | |
| Ieri h: 21:39 | Temporale | 26 | 16 | 54 | 1018 | 8 | S/SE 35.2 | |
| Ieri h: 20:55 | Nuvoloso | 31 | 8 | 23 | 1016 | 10 | N 0 | |
| Ieri h: 19:55 | Nuvoloso | 33 | 5 | 17 | 1014 | 10 | N 0 | |
| Ieri h: 18:55 | Nuvoloso | 35 | 3 | 13 | 1014 | 10 | N/NO 13 | |
| Ieri h: 17:55 | Nuvoloso | 34 | 7 | 18 | 1015 | 10 | O/NO 20.3 | |
| Ieri h: 16:55 | Nuvoloso | 36 | 6 | 15 | 1014 | 10 | NE 24 | |
| Ieri h: 16:29 | Nuvoloso | 37 | 7 | 15 | 1014 | 10 | NE 35.2 | |
| Ieri h: 15:55 | Nuvoloso | 38 | 4 | 12 | 1015 | 10 | NE 9.3 | |
| Ieri h: 14:55 | Nuvoloso | 37 | 7 | 15 | 1016 | 10 | N 0 | |
| Ieri h: 13:55 | Nuvoloso | 36 | 7 | 16 | 1017 | 10 | N 0 | |
| Ieri h: 12:55 | Nuvoloso | 35 | 9 | 20 | 1018 | 10 | NO 9.3 | |
| Ieri h: 11:55 | Nuvoloso | 34 | 8 | 20 | 1019 | 10 | N 7.4 | |



